sensor_id;sensor_type;location;lat;lon;timestamp;temperature;humidity
15111;DHT22;7656;51.954;7.998;2023-02-13T00:01:29;8.50;99.90
15111;DHT22;7656;51.954;7.998;2023-02-13T00:05:50;8.40;99.90
15111;DHT22;7656;51.954;7.998;2023-02-13T00:10:11;8.30;99.90
15111;DHT22;7656;51.954;7.998;2023-02-13T00:14:37;8.30;99.90
15111;DHT22;7656;51.954;7.998;2023-02-13T00:18:59;8.60;99.90
15111;DHT22;7656;51.954;7.998;2023-02-13T00:23:20;8.60;99.90
15111;DHT22;7656;51.954;7.998;2023-02-13T00:27:41;8.70;99.90
15111;DHT22;7656;51.954;7.998;2023-02-13T00:32:02;8.80;99.90
15111;DHT22;7656;51.954;7.998;2023-02-13T00:36:23;8.70;99.90
15111;DHT22;7656;51.954;7.998;2023-02-13T00:40:45;8.80;99.90
15111;DHT22;7656;51.954;7.998;2023-02-13T00:45:06;8.60;99.90
15111;DHT22;7656;51.954;7.998;2023-02-13T00:49:28;8.30;99.90
15111;DHT22;7656;51.954;7.998;2023-02-13T00:53:49;8.30;99.90
15111;DHT22;7656;51.954;7.998;2023-02-13T00:58:10;8.30;99.90
15111;DHT22;7656;51.954;7.998;2023-02-13T01:02:31;8.50;99.90
15111;DHT22;7656;51.954;7.998;2023-02-13T01:06:55;8.50;99.90
15111;DHT22;7656;51.954;7.998;2023-02-13T01:11:17;8.60;99.90
15111;DHT22;7656;51.954;7.998;2023-02-13T01:15:39;8.80;99.90
15111;DHT22;7656;51.954;7.998;2023-02-13T01:20:00;8.60;99.90
15111;DHT22;7656;51.954;7.998;2023-02-13T01:24:21;8.90;99.90
15111;DHT22;7656;51.954;7.998;2023-02-13T01:28:43;9.20;99.90
15111;DHT22;7656;51.954;7.998;2023-02-13T01:33:05;9.00;99.90
15111;DHT22;7656;51.954;7.998;2023-02-13T01:37:27;8.80;99.90
15111;DHT22;7656;51.954;7.998;2023-02-13T01:41:48;8.80;99.90
15111;DHT22;7656;51.954;7.998;2023-02-13T01:46:09;8.70;99.90
15111;DHT22;7656;51.954;7.998;2023-02-13T01:50:33;8.50;99.90
15111;DHT22;7656;51.954;7.998;2023-02-13T01:55:00;8.30;99.90
15111;DHT22;7656;51.954;7.998;2023-02-13T01:59:31;8.10;99.90
15111;DHT22;7656;51.954;7.998;2023-02-13T02:04:18;8.30;99.90
15111;DHT22;7656;51.954;7.998;2023-02-13T02:08:47;8.30;99.90
15111;DHT22;7656;51.954;7.998;2023-02-13T02:13:17;8.20;99.90
15111;DHT22;7656;51.954;7.998;2023-02-13T02:17:39;8.20;99.90
15111;DHT22;7656;51.954;7.998;2023-02-13T02:27:13;7.80;99.90
15111;DHT22;7656;51.954;7.998;2023-02-13T02:41:43;7.80;99.90
15111;DHT22;7656;51.954;7.998;2023-02-13T02:46:32;7.90;99.90
15111;DHT22;7656;51.954;7.998;2023-02-13T02:55:52;7.70;99.90
15111;DHT22;7656;51.954;7.998;2023-02-13T03:00:19;7.70;99.90
15111;DHT22;7656;51.954;7.998;2023-02-13T03:05:01;7.70;99.90
15111;DHT22;7656;51.954;7.998;2023-02-13T03:10:10;7.70;99.90
15111;DHT22;7656;51.954;7.998;2023-02-13T03:14:51;7.70;99.90
15111;DHT22;7656;51.954;7.998;2023-02-13T03:19:20;7.70;99.90
15111;DHT22;7656;51.954;7.998;2023-02-13T03:24:41;7.60;99.90
15111;DHT22;7656;51.954;7.998;2023-02-13T03:34:21;7.80;99.90
15111;DHT22;7656;51.954;7.998;2023-02-13T03:38:50;7.80;99.90
15111;DHT22;7656;51.954;7.998;2023-02-13T03:43:16;7.90;99.90
15111;DHT22;7656;51.954;7.998;2023-02-13T03:47:40;7.90;99.90
15111;DHT22;7656;51.954;7.998;2023-02-13T03:52:06;8.00;99.90
15111;DHT22;7656;51.954;7.998;2023-02-13T03:56:32;7.90;99.90
15111;DHT22;7656;51.954;7.998;2023-02-13T04:01:16;7.80;99.90
15111;DHT22;7656;51.954;7.998;2023-02-13T04:05:53;7.70;99.90
15111;DHT22;7656;51.954;7.998;2023-02-13T04:10:18;7.80;99.90
15111;DHT22;7656;51.954;7.998;2023-02-13T04:14:57;7.70;99.90
15111;DHT22;7656;51.954;7.998;2023-02-13T04:19:25;7.70;99.90
15111;DHT22;7656;51.954;7.998;2023-02-13T04:23:46;7.50;99.90
15111;DHT22;7656;51.954;7.998;2023-02-13T04:28:07;7.50;99.90
15111;DHT22;7656;51.954;7.998;2023-02-13T04:32:28;7.70;99.90
15111;DHT22;7656;51.954;7.998;2023-02-13T04:36:49;8.00;99.90
15111;DHT22;7656;51.954;7.998;2023-02-13T04:41:11;8.20;99.90
15111;DHT22;7656;51.954;7.998;2023-02-13T04:45:32;8.10;99.90
15111;DHT22;7656;51.954;7.998;2023-02-13T04:49:53;8.20;99.90
15111;DHT22;7656;51.954;7.998;2023-02-13T04:54:14;8.30;99.90
15111;DHT22;7656;51.954;7.998;2023-02-13T04:58:35;8.10;99.90
15111;DHT22;7656;51.954;7.998;2023-02-13T05:03:04;8.00;99.90
15111;DHT22;7656;51.954;7.998;2023-02-13T05:07:26;8.10;99.90
15111;DHT22;7656;51.954;7.998;2023-02-13T05:11:52;8.20;99.90
15111;DHT22;7656;51.954;7.998;2023-02-13T05:16:14;8.20;99.90
15111;DHT22;7656;51.954;7.998;2023-02-13T05:20:35;8.30;99.90
15111;DHT22;7656;51.954;7.998;2023-02-13T05:24:56;8.40;99.90
15111;DHT22;7656;51.954;7.998;2023-02-13T05:29:17;8.70;99.90
15111;DHT22;7656;51.954;7.998;2023-02-13T05:33:38;8.60;99.90
15111;DHT22;7656;51.954;7.998;2023-02-13T05:37:59;8.60;99.90
15111;DHT22;7656;51.954;7.998;2023-02-13T05:42:20;8.90;99.90
15111;DHT22;7656;51.954;7.998;2023-02-13T05:46:42;9.00;99.90
15111;DHT22;7656;51.954;7.998;2023-02-13T05:51:05;9.00;99.90
15111;DHT22;7656;51.954;7.998;2023-02-13T05:55:26;8.90;99.90
15111;DHT22;7656;51.954;7.998;2023-02-13T05:59:47;8.70;99.90
15111;DHT22;7656;51.954;7.998;2023-02-13T06:04:08;8.50;99.90
15111;DHT22;7656;51.954;7.998;2023-02-13T06:08:30;8.40;99.90
15111;DHT22;7656;51.954;7.998;2023-02-13T06:12:51;8.60;99.90
15111;DHT22;7656;51.954;7.998;2023-02-13T06:17:12;8.60;99.90
15111;DHT22;7656;51.954;7.998;2023-02-13T06:21:33;8.50;99.90
15111;DHT22;7656;51.954;7.998;2023-02-13T06:26:04;8.40;99.90
15111;DHT22;7656;51.954;7.998;2023-02-13T06:30:27;8.10;99.90
15111;DHT22;7656;51.954;7.998;2023-02-13T06:34:48;7.70;99.90
15111;DHT22;7656;51.954;7.998;2023-02-13T06:39:09;7.70;99.90
15111;DHT22;7656;51.954;7.998;2023-02-13T06:43:31;7.90;99.90
15111;DHT22;7656;51.954;7.998;2023-02-13T06:47:52;8.10;99.90
15111;DHT22;7656;51.954;7.998;2023-02-13T06:52:13;8.10;99.90
15111;DHT22;7656;51.954;7.998;2023-02-13T06:56:34;8.10;99.90
15111;DHT22;7656;51.954;7.998;2023-02-13T07:00:55;8.00;99.90
15111;DHT22;7656;51.954;7.998;2023-02-13T07:05:16;8.20;99.90
15111;DHT22;7656;51.954;7.998;2023-02-13T07:09:37;8.10;99.90
15111;DHT22;7656;51.954;7.998;2023-02-13T07:13:59;8.00;99.90
15111;DHT22;7656;51.954;7.998;2023-02-13T07:18:20;8.00;99.90
15111;DHT22;7656;51.954;7.998;2023-02-13T07:22:41;8.00;99.90
15111;DHT22;7656;51.954;7.998;2023-02-13T07:27:02;8.20;99.90
15111;DHT22;7656;51.954;7.998;2023-02-13T07:31:23;8.30;99.90
15111;DHT22;7656;51.954;7.998;2023-02-13T07:35:49;8.30;99.90
15111;DHT22;7656;51.954;7.998;2023-02-13T07:40:10;8.40;99.90
15111;DHT22;7656;51.954;7.998;2023-02-13T07:44:32;8.30;99.90
15111;DHT22;7656;51.954;7.998;2023-02-13T07:48:53;8.10;99.90
15111;DHT22;7656;51.954;7.998;2023-02-13T07:53:14;8.20;99.90
15111;DHT22;7656;51.954;7.998;2023-02-13T07:57:35;8.10;99.90
15111;DHT22;7656;51.954;7.998;2023-02-13T08:01:56;8.50;99.90
15111;DHT22;7656;51.954;7.998;2023-02-13T08:06:18;9.00;99.90
15111;DHT22;7656;51.954;7.998;2023-02-13T08:10:39;9.00;99.90
15111;DHT22;7656;51.954;7.998;2023-02-13T08:15:19;8.60;99.90
15111;DHT22;7656;51.954;7.998;2023-02-13T08:19:40;8.40;99.90
15111;DHT22;7656;51.954;7.998;2023-02-13T08:24:01;8.30;99.90
15111;DHT22;7656;51.954;7.998;2023-02-13T08:28:22;8.70;99.90
15111;DHT22;7656;51.954;7.998;2023-02-13T08:32:43;8.60;99.90
15111;DHT22;7656;51.954;7.998;2023-02-13T08:37:04;7.80;99.90
15111;DHT22;7656;51.954;7.998;2023-02-13T08:41:25;7.80;99.90
15111;DHT22;7656;51.954;7.998;2023-02-13T08:45:46;8.00;99.90
15111;DHT22;7656;51.954;7.998;2023-02-13T08:50:08;8.60;99.90
15111;DHT22;7656;51.954;7.998;2023-02-13T08:54:29;9.10;99.90
15111;DHT22;7656;51.954;7.998;2023-02-13T08:58:50;9.10;99.90
15111;DHT22;7656;51.954;7.998;2023-02-13T09:03:12;9.50;99.90
15111;DHT22;7656;51.954;7.998;2023-02-13T09:07:33;8.90;99.90
15111;DHT22;7656;51.954;7.998;2023-02-13T09:11:54;8.70;99.90
15111;DHT22;7656;51.954;7.998;2023-02-13T09:16:17;8.30;99.90
15111;DHT22;7656;51.954;7.998;2023-02-13T09:20:38;8.30;99.90
15111;DHT22;7656;51.954;7.998;2023-02-13T09:24:59;8.80;99.90
15111;DHT22;7656;51.954;7.998;2023-02-13T09:29:23;8.80;99.90
15111;DHT22;7656;51.954;7.998;2023-02-13T09:33:46;8.70;99.90
15111;DHT22;7656;51.954;7.998;2023-02-13T09:38:08;8.40;99.90
15111;DHT22;7656;51.954;7.998;2023-02-13T09:42:32;8.50;99.90
15111;DHT22;7656;51.954;7.998;2023-02-13T09:46:56;8.70;99.90
15111;DHT22;7656;51.954;7.998;2023-02-13T09:51:19;8.70;99.90
15111;DHT22;7656;51.954;7.998;2023-02-13T10:00:28;9.00;99.90
15111;DHT22;7656;51.954;7.998;2023-02-13T10:05:07;8.90;99.90
15111;DHT22;7656;51.954;7.998;2023-02-13T10:09:44;8.80;99.90
15111;DHT22;7656;51.954;7.998;2023-02-13T10:14:16;9.10;99.90
15111;DHT22;7656;51.954;7.998;2023-02-13T10:18:54;8.90;99.90
15111;DHT22;7656;51.954;7.998;2023-02-13T10:23:29;8.80;99.90
15111;DHT22;7656;51.954;7.998;2023-02-13T10:28:01;9.10;99.90
15111;DHT22;7656;51.954;7.998;2023-02-13T10:32:33;8.80;99.90
15111;DHT22;7656;51.954;7.998;2023-02-13T10:36:58;9.30;99.90
15111;DHT22;7656;51.954;7.998;2023-02-13T10:41:43;9.70;99.90
15111;DHT22;7656;51.954;7.998;2023-02-13T10:51:10;10.50;99.90
15111;DHT22;7656;51.954;7.998;2023-02-13T10:55:53;11.10;99.90
15111;DHT22;7656;51.954;7.998;2023-02-13T11:00:45;10.40;99.90
15111;DHT22;7656;51.954;7.998;2023-02-13T11:05:20;10.80;99.90
15111;DHT22;7656;51.954;7.998;2023-02-13T11:09:46;12.10;99.90
15111;DHT22;7656;51.954;7.998;2023-02-13T11:14:13;11.90;99.90
15111;DHT22;7656;51.954;7.998;2023-02-13T11:18:40;12.40;99.90
15111;DHT22;7656;51.954;7.998;2023-02-13T11:28:09;13.40;99.90
15111;DHT22;7656;51.954;7.998;2023-02-13T11:32:37;12.30;99.90
15111;DHT22;7656;51.954;7.998;2023-02-13T11:37:19;11.30;99.90
15111;DHT22;7656;51.954;7.998;2023-02-13T11:41:45;12.80;99.90
15111;DHT22;7656;51.954;7.998;2023-02-13T11:46:17;14.90;99.90
15111;DHT22;7656;51.954;7.998;2023-02-13T11:50:43;15.10;99.90
15111;DHT22;7656;51.954;7.998;2023-02-13T11:55:40;16.50;99.90
15111;DHT22;7656;51.954;7.998;2023-02-13T12:00:30;15.90;99.90
15111;DHT22;7656;51.954;7.998;2023-02-13T12:05:22;13.70;99.90
15111;DHT22;7656;51.954;7.998;2023-02-13T12:09:48;15.20;99.90
15111;DHT22;7656;51.954;7.998;2023-02-13T12:14:21;15.20;99.90
15111;DHT22;7656;51.954;7.998;2023-02-13T12:18:51;13.00;99.90
15111;DHT22;7656;51.954;7.998;2023-02-13T12:28:26;15.90;99.90
15111;DHT22;7656;51.954;7.998;2023-02-13T12:48:17;16.60;99.90
15111;DHT22;7656;51.954;7.998;2023-02-13T13:02:44;16.40;99.90
15111;DHT22;7656;51.954;7.998;2023-02-13T13:21:43;15.60;99.90
15111;DHT22;7656;51.954;7.998;2023-02-13T13:26:29;16.50;99.90
15111;DHT22;7656;51.954;7.998;2023-02-13T13:30:57;16.30;99.90
15111;DHT22;7656;51.954;7.998;2023-02-13T13:35:19;17.50;99.90
15111;DHT22;7656;51.954;7.998;2023-02-13T13:39:49;17.70;99.90
15111;DHT22;7656;51.954;7.998;2023-02-13T13:44:52;17.90;99.90
15111;DHT22;7656;51.954;7.998;2023-02-13T13:49:53;18.30;99.90
15111;DHT22;7656;51.954;7.998;2023-02-13T13:58:43;18.70;99.90
15111;DHT22;7656;51.954;7.998;2023-02-13T14:03:19;18.90;99.90
15111;DHT22;7656;51.954;7.998;2023-02-13T14:07:48;16.60;99.90
15111;DHT22;7656;51.954;7.998;2023-02-13T14:16:49;15.70;99.90
15111;DHT22;7656;51.954;7.998;2023-02-13T14:21:10;15.20;99.90
15111;DHT22;7656;51.954;7.998;2023-02-13T14:25:32;14.80;99.90
15111;DHT22;7656;51.954;7.998;2023-02-13T14:29:54;15.90;99.90
15111;DHT22;7656;51.954;7.998;2023-02-13T14:34:23;16.00;99.90
15111;DHT22;7656;51.954;7.998;2023-02-13T14:38:56;16.00;99.90
15111;DHT22;7656;51.954;7.998;2023-02-13T14:47:52;15.60;99.90
15111;DHT22;7656;51.954;7.998;2023-02-13T14:52:22;14.30;99.90
15111;DHT22;7656;51.954;7.998;2023-02-13T14:56:49;13.80;99.90
15111;DHT22;7656;51.954;7.998;2023-02-13T15:01:33;13.10;99.90
15111;DHT22;7656;51.954;7.998;2023-02-13T15:05:59;12.50;99.90
15111;DHT22;7656;51.954;7.998;2023-02-13T15:10:42;12.40;99.90
15111;DHT22;7656;51.954;7.998;2023-02-13T15:15:25;12.40;99.90
15111;DHT22;7656;51.954;7.998;2023-02-13T15:19:50;12.00;99.90
15111;DHT22;7656;51.954;7.998;2023-02-13T15:24:13;12.10;99.90
15111;DHT22;7656;51.954;7.998;2023-02-13T15:28:35;12.30;99.90
15111;DHT22;7656;51.954;7.998;2023-02-13T15:32:59;12.00;99.90
15111;DHT22;7656;51.954;7.998;2023-02-13T15:37:22;11.50;99.90
15111;DHT22;7656;51.954;7.998;2023-02-13T15:41:50;11.30;99.90
15111;DHT22;7656;51.954;7.998;2023-02-13T15:46:19;11.60;99.90
15111;DHT22;7656;51.954;7.998;2023-02-13T15:50:42;11.40;99.90
15111;DHT22;7656;51.954;7.998;2023-02-13T15:55:03;11.40;99.90
15111;DHT22;7656;51.954;7.998;2023-02-13T15:59:32;11.20;99.90
15111;DHT22;7656;51.954;7.998;2023-02-13T16:04:02;11.30;99.90
15111;DHT22;7656;51.954;7.998;2023-02-13T16:08:34;11.30;99.90
15111;DHT22;7656;51.954;7.998;2023-02-13T16:13:00;11.10;99.90
15111;DHT22;7656;51.954;7.998;2023-02-13T16:21:58;10.80;99.90
15111;DHT22;7656;51.954;7.998;2023-02-13T16:26:21;10.70;99.90
15111;DHT22;7656;51.954;7.998;2023-02-13T16:30:44;10.70;99.90
15111;DHT22;7656;51.954;7.998;2023-02-13T16:35:28;10.80;99.90
15111;DHT22;7656;51.954;7.998;2023-02-13T16:39:50;11.10;99.90
15111;DHT22;7656;51.954;7.998;2023-02-13T16:44:26;11.20;99.90
15111;DHT22;7656;51.954;7.998;2023-02-13T16:53:15;11.00;99.90
15111;DHT22;7656;51.954;7.998;2023-02-13T16:57:36;11.00;99.90
15111;DHT22;7656;51.954;7.998;2023-02-13T17:02:15;11.00;99.90
15111;DHT22;7656;51.954;7.998;2023-02-13T17:06:56;10.90;99.90
15111;DHT22;7656;51.954;7.998;2023-02-13T17:11:17;10.80;99.90
15111;DHT22;7656;51.954;7.998;2023-02-13T17:15:44;10.70;99.90
15111;DHT22;7656;51.954;7.998;2023-02-13T17:20:12;10.50;99.90
15111;DHT22;7656;51.954;7.998;2023-02-13T17:24:34;10.20;99.90
15111;DHT22;7656;51.954;7.998;2023-02-13T17:28:56;10.00;99.90
15111;DHT22;7656;51.954;7.998;2023-02-13T17:33:21;9.90;99.90
15111;DHT22;7656;51.954;7.998;2023-02-13T17:37:51;9.80;99.90
15111;DHT22;7656;51.954;7.998;2023-02-13T17:42:24;9.80;99.90
15111;DHT22;7656;51.954;7.998;2023-02-13T17:46:46;9.70;99.90
15111;DHT22;7656;51.954;7.998;2023-02-13T17:51:11;9.60;99.90
15111;DHT22;7656;51.954;7.998;2023-02-13T17:55:34;9.40;99.90
15111;DHT22;7656;51.954;7.998;2023-02-13T17:59:55;9.20;99.90
15111;DHT22;7656;51.954;7.998;2023-02-13T18:04:17;9.10;99.90
15111;DHT22;7656;51.954;7.998;2023-02-13T18:08:38;9.00;99.90
15111;DHT22;7656;51.954;7.998;2023-02-13T18:13:00;9.00;99.90
15111;DHT22;7656;51.954;7.998;2023-02-13T18:17:24;8.80;99.90
15111;DHT22;7656;51.954;7.998;2023-02-13T18:21:45;8.90;99.90
15111;DHT22;7656;51.954;7.998;2023-02-13T18:26:07;8.80;99.90
15111;DHT22;7656;51.954;7.998;2023-02-13T18:30:30;8.70;99.90
15111;DHT22;7656;51.954;7.998;2023-02-13T18:34:51;8.60;99.90
15111;DHT22;7656;51.954;7.998;2023-02-13T18:39:12;8.60;99.90
15111;DHT22;7656;51.954;7.998;2023-02-13T18:43:34;8.50;99.90
15111;DHT22;7656;51.954;7.998;2023-02-13T18:47:55;8.50;99.90
15111;DHT22;7656;51.954;7.998;2023-02-13T18:52:16;8.40;99.90
15111;DHT22;7656;51.954;7.998;2023-02-13T18:56:37;8.30;99.90
15111;DHT22;7656;51.954;7.998;2023-02-13T19:01:09;8.30;99.90
15111;DHT22;7656;51.954;7.998;2023-02-13T19:05:32;8.40;99.90
15111;DHT22;7656;51.954;7.998;2023-02-13T19:09:53;8.20;99.90
15111;DHT22;7656;51.954;7.998;2023-02-13T19:14:15;8.10;99.90
15111;DHT22;7656;51.954;7.998;2023-02-13T19:18:39;8.00;99.90
15111;DHT22;7656;51.954;7.998;2023-02-13T19:23:01;7.90;99.90
15111;DHT22;7656;51.954;7.998;2023-02-13T19:27:22;7.70;99.90
15111;DHT22;7656;51.954;7.998;2023-02-13T19:31:43;7.70;99.90
15111;DHT22;7656;51.954;7.998;2023-02-13T19:36:07;7.60;99.90
15111;DHT22;7656;51.954;7.998;2023-02-13T19:40:33;7.40;99.90
15111;DHT22;7656;51.954;7.998;2023-02-13T19:44:54;7.30;99.90
15111;DHT22;7656;51.954;7.998;2023-02-13T19:49:15;7.40;99.90
15111;DHT22;7656;51.954;7.998;2023-02-13T19:53:39;7.40;99.90
15111;DHT22;7656;51.954;7.998;2023-02-13T19:58:00;7.20;99.90
15111;DHT22;7656;51.954;7.998;2023-02-13T20:02:21;7.10;99.90
15111;DHT22;7656;51.954;7.998;2023-02-13T20:06:42;6.90;99.90
15111;DHT22;7656;51.954;7.998;2023-02-13T20:11:11;7.10;99.90
15111;DHT22;7656;51.954;7.998;2023-02-13T20:15:33;7.30;99.90
15111;DHT22;7656;51.954;7.998;2023-02-13T20:19:54;6.80;99.90
15111;DHT22;7656;51.954;7.998;2023-02-13T20:24:15;6.70;99.90
15111;DHT22;7656;51.954;7.998;2023-02-13T20:28:37;6.60;99.90
15111;DHT22;7656;51.954;7.998;2023-02-13T20:32:58;6.40;99.90
15111;DHT22;7656;51.954;7.998;2023-02-13T20:37:19;6.40;99.90
15111;DHT22;7656;51.954;7.998;2023-02-13T20:41:40;5.90;99.90
15111;DHT22;7656;51.954;7.998;2023-02-13T20:46:01;5.80;99.90
15111;DHT22;7656;51.954;7.998;2023-02-13T20:50:22;5.40;99.90
15111;DHT22;7656;51.954;7.998;2023-02-13T20:54:44;5.10;99.90
15111;DHT22;7656;51.954;7.998;2023-02-13T20:59:06;5.10;99.90
15111;DHT22;7656;51.954;7.998;2023-02-13T21:03:27;5.30;99.90
15111;DHT22;7656;51.954;7.998;2023-02-13T21:07:49;5.50;99.90
15111;DHT22;7656;51.954;7.998;2023-02-13T21:12:10;5.50;99.90
15111;DHT22;7656;51.954;7.998;2023-02-13T21:16:33;5.50;99.90
15111;DHT22;7656;51.954;7.998;2023-02-13T21:20:56;5.70;99.90
15111;DHT22;7656;51.954;7.998;2023-02-13T21:25:17;5.60;99.90
15111;DHT22;7656;51.954;7.998;2023-02-13T21:29:38;5.60;99.90
15111;DHT22;7656;51.954;7.998;2023-02-13T21:34:02;5.70;99.90
15111;DHT22;7656;51.954;7.998;2023-02-13T21:38:25;5.20;99.90
15111;DHT22;7656;51.954;7.998;2023-02-13T21:42:46;4.90;99.90
15111;DHT22;7656;51.954;7.998;2023-02-13T21:47:07;4.90;99.90
15111;DHT22;7656;51.954;7.998;2023-02-13T21:51:30;4.80;99.90
15111;DHT22;7656;51.954;7.998;2023-02-13T21:55:52;5.00;99.90
15111;DHT22;7656;51.954;7.998;2023-02-13T22:00:13;4.70;99.90
15111;DHT22;7656;51.954;7.998;2023-02-13T22:04:35;4.90;99.90
15111;DHT22;7656;51.954;7.998;2023-02-13T22:09:07;4.70;99.90
15111;DHT22;7656;51.954;7.998;2023-02-13T22:13:33;4.50;99.90
15111;DHT22;7656;51.954;7.998;2023-02-13T22:17:54;4.70;99.90
15111;DHT22;7656;51.954;7.998;2023-02-13T22:22:15;4.60;99.90
15111;DHT22;7656;51.954;7.998;2023-02-13T22:26:39;4.50;99.90
15111;DHT22;7656;51.954;7.998;2023-02-13T22:31:06;4.50;99.90
15111;DHT22;7656;51.954;7.998;2023-02-13T22:35:28;4.60;99.90
15111;DHT22;7656;51.954;7.998;2023-02-13T22:39:49;4.70;99.90
15111;DHT22;7656;51.954;7.998;2023-02-13T22:44:10;4.70;99.90
15111;DHT22;7656;51.954;7.998;2023-02-13T22:48:34;4.70;99.90
15111;DHT22;7656;51.954;7.998;2023-02-13T22:52:56;4.70;99.90
15111;DHT22;7656;51.954;7.998;2023-02-13T22:57:17;4.80;99.90
15111;DHT22;7656;51.954;7.998;2023-02-13T23:01:38;4.70;99.90
15111;DHT22;7656;51.954;7.998;2023-02-13T23:06:02;4.70;99.90
15111;DHT22;7656;51.954;7.998;2023-02-13T23:10:24;4.70;99.90
15111;DHT22;7656;51.954;7.998;2023-02-13T23:14:45;4.70;99.90
15111;DHT22;7656;51.954;7.998;2023-02-13T23:19:06;4.50;99.90
15111;DHT22;7656;51.954;7.998;2023-02-13T23:23:27;4.00;99.90
15111;DHT22;7656;51.954;7.998;2023-02-13T23:27:48;3.90;99.90
15111;DHT22;7656;51.954;7.998;2023-02-13T23:32:09;3.80;99.90
15111;DHT22;7656;51.954;7.998;2023-02-13T23:36:32;3.90;99.90
15111;DHT22;7656;51.954;7.998;2023-02-13T23:40:53;4.10;99.90
15111;DHT22;7656;51.954;7.998;2023-02-13T23:45:14;4.10;99.90
15111;DHT22;7656;51.954;7.998;2023-02-13T23:49:36;4.10;99.90
15111;DHT22;7656;51.954;7.998;2023-02-13T23:53:57;4.10;99.90
15111;DHT22;7656;51.954;7.998;2023-02-13T23:58:19;4.00;99.90
